createdAt,value
2023-04-24T00:02:19.115Z,49682.41
2023-04-24T00:07:24.937Z,49666.44
2023-04-24T00:12:29.438Z,49654.44
2023-04-24T00:17:33.753Z,49640.44
2023-04-24T00:22:39.698Z,49616.47
2023-04-24T00:27:44.160Z,49630.44
2023-04-24T00:32:49.156Z,49654.44
2023-04-24T00:37:54.993Z,49652.44
2023-04-24T00:42:59.140Z,49662.44
2023-04-24T00:48:04.199Z,49582.47
2023-04-24T00:53:10.057Z,49590.47
2023-04-24T00:58:15.300Z,49598.47
2023-04-24T01:03:21.095Z,49578.47
2023-04-24T01:08:28.796Z,49592.47
2023-04-24T01:13:35.177Z,49574.47
2023-04-24T01:18:40.790Z,49558.50
2023-04-24T01:23:46.757Z,49554.50
2023-04-24T01:28:51.217Z,49526.50
2023-04-24T01:33:56.275Z,49530.50
2023-04-24T01:39:02.194Z,49502.53
2023-04-24T01:44:06.486Z,49464.56
2023-04-24T01:49:10.904Z,49490.53
2023-04-24T01:54:17.623Z,49454.56
2023-04-24T01:59:24.113Z,49450.56
2023-04-24T02:04:28.325Z,49470.56
2023-04-24T02:09:34.081Z,49434.56
2023-04-24T02:14:39.068Z,49472.56
2023-04-24T02:19:43.716Z,49438.56
2023-04-24T02:24:49.838Z,49440.56
2023-04-24T02:29:54.264Z,49434.56
2023-04-24T02:34:58.760Z,49476.53
2023-04-24T02:40:05.049Z,49434.56
2023-04-24T02:45:10.259Z,49398.59
2023-04-24T02:50:15.018Z,49442.56
2023-04-24T02:55:21.323Z,49430.56
2023-04-24T03:00:25.631Z,49416.59
2023-04-24T03:05:30.047Z,49448.56
2023-04-24T03:10:36.179Z,49414.59
2023-04-24T03:15:40.293Z,49426.59
2023-04-24T03:20:44.614Z,49418.59
2023-04-24T03:25:50.799Z,49432.56
2023-04-24T03:30:57.393Z,49426.59
2023-04-24T03:36:03.982Z,49450.56
2023-04-24T03:41:18.998Z,49450.56
2023-04-24T03:46:29.104Z,49466.56
2023-04-24T03:51:36.805Z,49450.56
2023-04-24T03:56:54.127Z,49440.56
2023-04-24T04:01:58.707Z,49450.56
2023-04-24T04:07:04.028Z,49430.56
2023-04-24T04:12:10.189Z,49396.59
2023-04-24T04:17:16.455Z,49460.56
2023-04-24T04:22:20.966Z,49464.56
2023-04-24T04:27:29.719Z,49462.56
2023-04-24T04:32:40.186Z,49506.53
2023-04-24T04:37:44.572Z,49508.53
2023-04-24T04:43:09.243Z,49528.50
2023-04-24T04:48:20.706Z,49570.50
2023-04-24T04:53:25.042Z,49630.44
2023-04-24T04:58:30.957Z,49672.44
2023-04-24T05:03:38.195Z,49742.38
2023-04-24T05:08:46.782Z,49714.41
2023-04-24T05:14:11.054Z,49814.34
2023-04-24T05:19:17.568Z,49888.31
2023-04-24T05:24:23.750Z,49782.34
2023-04-24T05:29:43.594Z,49682.41
2023-04-24T05:34:48.310Z,49654.44
2023-04-24T05:39:52.814Z,49726.38
2023-04-24T05:44:58.531Z,49710.41
2023-04-24T05:50:04.558Z,49740.38
2023-04-24T05:55:09.716Z,49706.41
2023-04-24T06:00:19.127Z,49814.34
2023-04-24T06:05:29.610Z,49908.28
2023-04-24T06:10:33.860Z,49948.28
2023-04-24T06:15:40.130Z,49914.28
2023-04-24T06:20:47.857Z,50168.16
2023-04-24T06:25:52.881Z,50827.91
2023-04-24T06:30:58.799Z,51719.72
2023-04-24T06:36:02.942Z,51933.69
2023-04-24T06:41:07.265Z,52049.69
2023-04-24T06:46:13.483Z,52355.72
2023-04-24T06:51:18.824Z,52067.69
2023-04-24T06:56:23.226Z,51831.72
2023-04-24T07:01:28.867Z,51909.72
2023-04-24T07:06:33.774Z,52329.72
2023-04-24T07:11:40.312Z,53285.88
2023-04-24T07:16:46.470Z,53009.81
2023-04-24T07:21:50.949Z,52519.72
2023-04-24T07:26:56.525Z,53866.13
2023-04-24T07:32:04.021Z,54076.22
2023-04-24T07:37:08.845Z,53505.97
2023-04-24T07:42:12.957Z,54010.19
2023-04-24T07:47:18.874Z,53858.09
2023-04-24T07:52:23.414Z,53101.84
2023-04-24T07:57:27.962Z,53794.09
2023-04-24T08:02:33.970Z,53886.13
2023-04-24T08:07:38.497Z,53267.88
2023-04-24T08:12:44.258Z,53271.88
2023-04-24T08:17:51.169Z,53383.91
2023-04-24T08:22:58.162Z,52139.69
2023-04-24T08:28:06.095Z,52689.75
2023-04-24T08:33:11.963Z,52193.72
2023-04-24T08:38:16.108Z,52947.81
2023-04-24T08:43:20.868Z,52577.75
2023-04-24T08:48:31.570Z,51721.72
2023-04-24T08:53:37.250Z,51633.72
2023-04-24T08:58:42.123Z,51171.81
2023-04-24T09:03:49.301Z,50985.84
2023-04-24T09:08:57.090Z,51101.81
2023-04-24T09:14:03.073Z,50799.91
2023-04-24T09:19:09.240Z,50825.91
2023-04-24T09:24:19.629Z,50925.88
2023-04-24T09:29:24.024Z,50975.84
2023-04-24T09:34:29.994Z,50775.91
2023-04-24T09:39:34.104Z,50597.97
2023-04-24T09:44:38.726Z,50599.97
2023-04-24T09:49:45.215Z,50941.88
2023-04-24T09:54:55.291Z,50849.88
2023-04-24T10:00:00.161Z,50745.91
2023-04-24T10:05:06.358Z,50635.97
2023-04-24T10:10:11.881Z,50751.91
2023-04-24T10:15:18.871Z,50847.88
2023-04-24T10:20:26.545Z,50961.84
2023-04-24T10:25:32.205Z,51077.81
2023-04-24T10:30:37.487Z,50887.88
2023-04-24T10:35:48.997Z,50709.94
2023-04-24T10:40:53.227Z,50817.91
2023-04-24T10:46:05.687Z,50831.91
2023-04-24T10:51:14.720Z,50693.94
2023-04-24T10:56:19.505Z,50532.00
2023-04-24T11:01:28.573Z,50332.09
2023-04-24T11:06:36.946Z,50160.16
2023-04-24T11:11:47.514Z,50148.16
2023-04-24T11:16:56.414Z,50022.22
2023-04-24T11:22:04.360Z,49998.25
2023-04-24T11:27:15.165Z,49904.28
2023-04-24T11:32:21.551Z,49956.25
2023-04-24T11:37:30.266Z,49962.25
2023-04-24T11:42:37.464Z,49978.25
2023-04-24T11:47:42.779Z,50008.25
2023-04-24T11:52:50.096Z,50018.22
2023-04-24T11:57:58.840Z,50062.22
2023-04-24T12:03:08.509Z,50134.16
2023-04-24T12:08:14.422Z,50106.19
2023-04-24T12:13:18.866Z,50218.13
2023-04-24T12:18:25.049Z,50144.16
2023-04-24T12:23:40.264Z,50088.19
2023-04-24T12:28:44.749Z,50106.19
2023-04-24T12:33:49.134Z,50062.22
2023-04-24T12:38:56.825Z,50066.22
2023-04-24T12:44:01.353Z,50054.22
2023-04-24T12:49:05.458Z,50030.22
2023-04-24T12:54:11.781Z,50024.22
2023-04-24T12:59:19.170Z,49994.25
2023-04-24T13:04:23.519Z,50024.22
2023-04-24T13:09:29.288Z,49958.25
2023-04-24T13:14:33.781Z,49966.25
2023-04-24T13:19:39.471Z,50010.22
2023-04-24T13:24:45.118Z,49934.28
2023-04-24T13:29:49.545Z,49958.25
2023-04-24T13:34:54.334Z,49960.25
2023-04-24T13:39:59.891Z,49930.28
2023-04-24T13:45:21.302Z,49864.31
2023-04-24T13:50:28.857Z,49842.31
2023-04-24T13:55:34.694Z,49852.31
2023-04-24T14:00:39.136Z,49796.34
2023-04-24T14:05:43.912Z,49798.34
2023-04-24T14:10:50.058Z,49794.34
2023-04-24T14:15:55.064Z,49764.38
2023-04-24T14:20:59.344Z,49762.38
2023-04-24T14:26:05.223Z,49774.38
2023-04-24T14:31:10.382Z,49766.38
2023-04-24T14:36:14.957Z,49826.34
2023-04-24T14:41:21.258Z,49732.38
2023-04-24T14:46:26.018Z,49788.34
2023-04-24T14:51:31.559Z,49802.34
2023-04-24T14:56:37.582Z,49792.34
2023-04-24T15:01:41.767Z,49770.38
2023-04-24T15:06:46.448Z,49766.38
2023-04-24T15:11:52.708Z,49818.34
2023-04-24T15:16:56.967Z,49830.34
2023-04-24T15:22:01.209Z,49856.31
2023-04-24T15:27:07.354Z,49844.31
2023-04-24T15:32:11.755Z,49792.34
2023-04-24T15:37:16.925Z,49770.38
2023-04-24T15:42:22.714Z,49782.34
2023-04-24T15:47:27.274Z,49768.38
2023-04-24T15:52:31.876Z,49742.38
2023-04-24T15:57:37.610Z,49772.38
2023-04-24T16:02:42.288Z,49764.38
2023-04-24T16:07:46.882Z,49722.41
2023-04-24T16:12:53.648Z,49702.41
2023-04-24T16:17:58.806Z,49726.38
2023-04-24T16:23:03.413Z,49692.41
2023-04-24T16:28:09.566Z,49676.41
2023-04-24T16:33:13.969Z,49696.41
2023-04-24T16:38:18.253Z,49732.38
2023-04-24T16:43:24.101Z,49714.41
2023-04-24T16:48:28.571Z,49750.38
2023-04-24T16:53:32.982Z,49730.38
2023-04-24T16:58:38.581Z,49750.38
2023-04-24T17:03:43.141Z,49714.41
2023-04-24T17:08:48.326Z,49734.38
2023-04-24T17:13:54.410Z,49736.38
2023-04-24T17:18:58.658Z,49824.34
2023-04-24T17:24:02.791Z,50000.25
2023-04-24T17:29:08.799Z,50158.16
2023-04-24T17:34:13.001Z,50270.09
2023-04-24T17:39:17.939Z,50328.09
2023-04-24T17:44:23.492Z,50428.03
2023-04-24T17:49:27.818Z,50438.03
2023-04-24T17:54:32.147Z,50386.06
2023-04-24T17:59:38.041Z,50358.06
2023-04-24T18:04:43.672Z,50304.09
2023-04-24T18:09:48.266Z,50344.06
2023-04-24T18:14:59.907Z,50344.06
2023-04-24T18:20:19.583Z,50302.09
2023-04-24T18:25:27.208Z,50278.09
2023-04-24T18:30:34.892Z,50274.09
2023-04-24T18:35:39.499Z,50288.09
2023-04-24T18:40:44.349Z,50306.09
2023-04-24T18:45:49.899Z,50292.09
2023-04-24T18:50:54.330Z,50362.06
2023-04-24T18:55:58.993Z,50372.06
2023-04-24T19:01:06.824Z,50364.06
2023-04-24T19:06:12.228Z,50416.03
2023-04-24T19:11:16.348Z,50422.03
2023-04-24T19:16:22.309Z,50506.00
2023-04-24T19:21:26.772Z,50567.97
2023-04-24T19:26:31.737Z,50589.97
2023-04-24T19:31:37.335Z,50777.91
2023-04-24T19:36:41.982Z,50829.91
2023-04-24T19:41:46.608Z,50913.88
2023-04-24T19:46:52.475Z,51103.81
2023-04-24T19:51:56.968Z,51181.81
2023-04-24T19:57:01.999Z,51337.78
2023-04-24T20:02:08.037Z,51509.75
2023-04-24T20:07:12.436Z,51653.72
2023-04-24T20:12:17.009Z,51775.72
2023-04-24T20:17:22.899Z,51793.72
2023-04-24T20:22:27.149Z,51973.69
2023-04-24T20:27:32.664Z,52027.69
2023-04-24T20:32:41.310Z,52093.69
2023-04-24T20:37:45.793Z,52129.69
2023-04-24T20:42:49.958Z,52131.69
2023-04-24T20:47:55.499Z,52135.69
2023-04-24T20:52:59.840Z,52205.69
2023-04-24T20:58:04.538Z,52255.72
2023-04-24T21:03:10.521Z,52231.72
2023-04-24T21:08:14.802Z,52225.72
2023-04-24T21:13:19.585Z,52187.72
2023-04-24T21:18:26.380Z,52169.72
2023-04-24T21:23:30.637Z,52153.69
2023-04-24T21:28:35.296Z,52175.69
2023-04-24T21:33:41.204Z,52149.69
2023-04-24T21:38:45.323Z,52129.69
2023-04-24T21:43:50.958Z,52061.69
2023-04-24T21:48:56.850Z,52031.69
2023-04-24T21:54:01.031Z,51949.69
2023-04-24T21:59:05.863Z,51909.72
2023-04-24T22:04:11.943Z,51933.69
2023-04-24T22:09:16.572Z,51943.72
2023-04-24T22:14:21.106Z,51881.72
2023-04-24T22:19:28.423Z,51913.72
2023-04-24T22:24:32.688Z,51851.72
2023-04-24T22:29:37.155Z,51873.72
2023-04-24T22:34:42.694Z,51891.72
2023-04-24T22:39:47.018Z,51985.69
2023-04-24T22:44:51.260Z,51923.72
2023-04-24T22:49:58.705Z,51913.72
2023-04-24T22:55:02.822Z,51925.72
2023-04-24T23:00:11.411Z,51971.69
2023-04-24T23:05:17.321Z,51979.69
2023-04-24T23:10:21.906Z,51987.69
2023-04-24T23:15:26.360Z,51987.69
2023-04-24T23:20:32.162Z,51975.69
2023-04-24T23:25:36.859Z,51993.69
2023-04-24T23:30:41.208Z,51981.69
2023-04-24T23:35:47.381Z,51969.69
2023-04-24T23:40:52.235Z,51985.69
2023-04-24T23:45:56.977Z,51965.69
2023-04-24T23:51:03.043Z,52017.69
2023-04-24T23:56:07.626Z,52017.69
